Time;durP1;ratioP1;P1;durP2;ratioP2;P2;SDS_P1;SDS_P2;PMS_P1;PMS_P2;Temp;Humidity;BMP_temperature;BMP_pressure;BME280_temperature;BME280_humidity;BME280_pressure;Samples;Min_cycle;Max_cycle;Signal;HPM_P1;HPM_P2
2021/01/22 00:00:05;;;;;;;63.55;31.90;;;;;;;1.37;80.43;99068.91;1724469;83;25600;-55
2021/01/22 00:02:34;;;;;;;61.30;30.50;;;;;;;1.35;80.41;99067.06;1724322;83;26093;-61
2021/01/22 00:05:01;;;;;;;57.67;30.50;;;;;;;1.35;80.40;99056.95;1724379;83;25637;-61
2021/01/22 00:07:28;;;;;;;60.48;29.10;;;;;;;1.35;80.59;99078.27;1724395;81;25682;-64
2021/01/22 00:09:55;;;;;;;50.92;29.60;;;;;;;1.34;80.49;99073.45;1724168;83;25609;-65
2021/01/22 00:12:21;;;;;;;59.60;30.15;;;;;;;1.33;80.46;99071.06;1724418;83;25637;-63
2021/01/22 00:14:48;;;;;;;63.23;30.75;;;;;;;1.30;80.52;99057.23;1724392;83;26074;-55
2021/01/22 00:17:15;;;;;;;67.97;30.68;;;;;;;1.31;80.50;99070.01;1724154;83;25640;-42
2021/01/22 00:19:42;;;;;;;57.15;29.60;;;;;;;1.29;80.48;99066.83;1724452;82;25687;-63
2021/01/22 00:22:09;;;;;;;59.55;29.82;;;;;;;1.27;80.60;99057.78;1724409;83;25273;-63
2021/01/22 00:24:36;;;;;;;58.83;30.05;;;;;;;1.26;80.83;99071.37;1724495;83;25639;-56
2021/01/22 00:27:04;;;;;;;57.15;29.55;;;;;;;1.26;80.59;99061.53;1724399;83;25696;-54
2021/01/22 00:29:30;;;;;;;63.25;30.65;;;;;;;1.23;80.61;99056.76;1724319;81;25610;-52
2021/01/22 00:31:57;;;;;;;58.98;28.75;;;;;;;1.21;80.67;99056.25;1724427;83;25568;-55
2021/01/22 00:34:24;;;;;;;63.58;32.45;;;;;;;1.20;80.75;99047.20;1724342;83;25906;-61
2021/01/22 00:36:51;;;;;;;56.42;28.38;;;;;;;1.19;80.86;99051.73;1724292;83;25637;-59
2021/01/22 00:39:18;;;;;;;57.48;29.25;;;;;;;1.19;80.69;99041.59;1724280;83;25700;-59
2021/01/22 00:41:45;;;;;;;62.05;30.50;;;;;;;1.16;80.84;99032.82;1724330;83;25655;-52
2021/01/22 00:44:11;;;;;;;61.10;29.40;;;;;;;1.14;80.69;99030.43;1724345;83;25690;-60
2021/01/22 00:46:38;;;;;;;57.67;28.95;;;;;;;1.11;80.78;99031.80;1724434;82;25634;-59
2021/01/22 00:49:05;;;;;;;58.87;27.52;;;;;;;1.08;80.83;99025.69;1724176;83;25625;-46
2021/01/22 00:51:32;;;;;;;56.48;27.77;;;;;;;1.08;80.81;99027.02;1724436;83;25739;-61
2021/01/22 00:53:59;;;;;;;54.90;27.48;;;;;;;1.06;80.83;99031.83;1724113;83;25581;-50
2021/01/22 00:56:25;;;;;;;54.10;27.85;;;;;;;1.04;80.80;99018.52;1724323;83;25643;-60
2021/01/22 00:58:52;;;;;;;55.28;28.98;;;;;;;1.01;80.81;99019.88;1724390;83;25611;-58
2021/01/22 01:01:19;;;;;;;55.20;28.12;;;;;;;0.99;80.90;99017.22;1724490;83;25629;-59
2021/01/22 01:03:46;;;;;;;55.95;28.07;;;;;;;0.97;80.97;99021.52;1724341;82;26164;-60
2021/01/22 01:06:13;;;;;;;57.00;27.98;;;;;;;0.94;81.06;99018.07;1724321;82;25705;-47
2021/01/22 01:08:40;;;;;;;56.50;29.42;;;;;;;0.93;81.11;99014.59;1724309;83;25689;-59
2021/01/22 01:11:06;;;;;;;52.58;26.93;;;;;;;0.94;81.03;99014.08;1724361;83;25692;-41
2021/01/22 01:13:33;;;;;;;51.77;27.40;;;;;;;0.92;80.99;99014.34;1724375;83;26320;-59
2021/01/22 01:16:00;;;;;;;60.10;28.73;;;;;;;0.91;81.03;99011.41;1724454;83;26408;-43
2021/01/22 01:18:26;;;;;;;55.58;29.85;;;;;;;0.91;81.12;99022.61;1724213;83;25564;-61
2021/01/22 01:20:54;;;;;;;61.83;30.23;;;;;;;0.91;81.05;99019.41;1724293;83;25690;-47
2021/01/22 01:23:21;;;;;;;57.78;29.07;;;;;;;0.88;81.14;99023.16;1724292;83;25696;-58
2021/01/22 01:25:48;;;;;;;63.13;31.52;;;;;;;0.85;81.11;99023.19;1724294;83;25588;-59
2021/01/22 01:28:14;;;;;;;55.52;28.07;;;;;;;0.82;81.30;99017.59;1723377;83;26163;-62
2021/01/22 01:30:41;;;;;;;56.90;29.10;;;;;;;0.79;81.27;99016.83;1724306;83;25658;-63
2021/01/22 01:33:10;;;;;;;55.50;27.07;;;;;;;0.77;81.32;99023.76;1724389;82;25671;-66
2021/01/22 01:35:36;;;;;;;51.83;26.95;;;;;;;0.74;81.38;99006.45;1724346;82;25608;-64
2021/01/22 01:38:04;;;;;;;54.00;28.47;;;;;;;0.72;81.44;99015.27;1724388;83;26286;-68
2021/01/22 01:40:31;;;;;;;53.00;28.02;;;;;;;0.71;81.44;99027.51;1724401;83;25781;-58
2021/01/22 01:42:58;;;;;;;53.60;28.23;;;;;;;0.68;81.47;99019.55;1724297;83;25737;-65
2021/01/22 01:45:25;;;;;;;54.35;28.52;;;;;;;0.66;81.54;99005.70;1724469;83;26302;-59
2021/01/22 01:47:52;;;;;;;53.58;28.38;;;;;;;0.66;81.62;99002.25;1724761;83;25675;-62
2021/01/22 01:50:19;;;;;;;63.78;28.40;;;;;;;0.65;81.72;99008.66;1724422;83;25610;-53
2021/01/22 01:52:46;;;;;;;53.28;27.60;;;;;;;0.65;81.67;99010.78;1724921;81;26801;-63
2021/01/22 01:55:13;;;;;;;53.30;27.93;;;;;;;0.65;81.88;99008.12;1725253;82;25393;-62
2021/01/22 01:57:40;;;;;;;57.43;27.37;;;;;;;0.63;81.81;99008.94;1725581;82;25559;-59
2021/01/22 02:00:08;;;;;;;53.38;26.77;;;;;;;0.63;81.84;99008.94;1725414;83;25558;-63
2021/01/22 02:02:35;;;;;;;56.20;26.68;;;;;;;0.63;81.86;99005.45;1725518;83;25592;-63
2021/01/22 02:05:02;;;;;;;58.68;26.68;;;;;;;0.63;81.92;99000.13;1725629;83;27076;-62
2021/01/22 02:07:29;;;;;;;52.65;26.05;;;;;;;0.62;81.89;98991.36;1725368;83;25383;-62
2021/01/22 02:09:56;;;;;;;49.55;25.30;;;;;;;0.64;81.94;98991.09;1725520;83;25553;-64
2021/01/22 02:12:23;;;;;;;50.55;25.32;;;;;;;0.66;81.94;98984.95;1725249;83;25427;-55
2021/01/22 02:14:50;;;;;;;55.75;26.05;;;;;;;0.67;81.96;98987.89;1725603;83;25615;-62
2021/01/22 02:17:17;;;;;;;49.60;24.60;;;;;;;0.68;82.02;98983.62;1725517;83;25780;-63
2021/01/22 02:20:13;;;;;;;47.55;26.17;;;;;;;0.70;82.02;98984.14;1725417;83;25393;-64
2021/01/22 02:22:39;;;;;;;47.80;23.77;;;;;;;0.72;82.01;98985.19;1725639;83;25564;-65
2021/01/22 02:25:12;;;;;;;49.45;26.00;;;;;;;0.72;81.95;98982.53;1725395;82;25734;-55
2021/01/22 02:27:40;;;;;;;45.85;24.60;;;;;;;0.72;81.95;98981.98;1725586;83;25371;-60
2021/01/22 02:30:09;;;;;;;40.00;23.15;;;;;;;0.72;82.03;98979.87;1725586;83;26484;-63
2021/01/22 02:32:36;;;;;;;45.63;24.72;;;;;;;0.67;81.93;98975.36;1725555;83;25616;-62
2021/01/22 02:35:09;;;;;;;48.28;24.32;;;;;;;0.65;81.88;98969.53;1725568;82;25562;-62
2021/01/22 02:37:37;;;;;;;44.42;23.60;;;;;;;0.63;81.93;98965.53;1725717;83;25356;-44
2021/01/22 02:40:09;;;;;;;35.80;17.35;;;;;;;0.61;81.95;98967.69;1725891;83;26339;-62
2021/01/22 02:42:39;;;;;;;47.98;24.45;;;;;;;0.59;81.94;98960.52;1725681;83;25776;-62
2021/01/22 02:45:10;;;;;;;44.83;22.90;;;;;;;0.55;81.91;98960.27;1725671;82;25563;-63
2021/01/22 02:47:41;;;;;;;45.90;24.00;;;;;;;0.51;82.06;98953.38;1725687;83;25530;-61
2021/01/22 02:50:09;;;;;;;45.98;22.20;;;;;;;0.51;82.12;98945.91;1725756;83;25527;-48
2021/01/22 02:52:37;;;;;;;41.90;22.98;;;;;;;0.49;82.26;98942.19;1725752;83;25573;-63
2021/01/22 02:55:06;;;;;;;44.98;22.90;;;;;;;0.50;82.32;98937.14;1725173;82;26274;-64
2021/01/22 02:58:00;;;;;;;41.88;23.80;;;;;;;0.52;82.48;98935.00;1725165;83;33160;-63
2021/01/22 03:00:36;;;;;;;43.68;23.15;;;;;;;0.53;82.44;98929.16;1725171;83;25680;-62
2021/01/22 03:03:11;;;;;;;44.60;23.57;;;;;;;0.57;82.64;98926.20;1725038;83;25499;-59
2021/01/22 03:05:39;;;;;;;44.73;23.15;;;;;;;0.56;82.59;98931.25;1725260;83;25570;-47
2021/01/22 03:08:11;;;;;;;46.85;24.45;;;;;;;0.57;82.68;98926.20;1725079;83;25820;-62
2021/01/22 03:10:39;;;;;;;47.30;23.55;;;;;;;0.59;82.81;98926.71;1725090;83;25658;-62
2021/01/22 03:13:07;;;;;;;48.60;23.52;;;;;;;0.62;82.89;98921.38;1725116;83;25657;-62
2021/01/22 03:15:36;;;;;;;42.90;22.13;;;;;;;0.65;83.13;98922.17;1724938;83;25425;-62
2021/01/22 03:18:20;;;;;;;47.80;24.82;;;;;;;0.67;82.90;98936.77;1725149;83;25381;-53
2021/01/22 03:20:49;;;;;;;41.75;21.85;;;;;;;0.71;82.93;98948.45;1725054;83;26816;-62
2021/01/22 03:23:18;;;;;;;46.20;22.77;;;;;;;0.78;82.93;98926.84;1725067;82;25716;-62
2021/01/22 03:25:46;;;;;;;43.70;23.98;;;;;;;0.82;82.84;98924.42;1725271;83;25570;-63
2021/01/22 03:28:14;;;;;;;42.27;21.17;;;;;;;0.85;82.73;98916.70;1725045;83;25527;-62
2021/01/22 03:30:41;;;;;;;39.60;21.02;;;;;;;0.88;82.75;98916.12;1725154;83;25575;-42
2021/01/22 03:33:09;;;;;;;41.25;22.60;;;;;;;0.92;82.66;98913.72;1725127;82;25965;-61
2021/01/22 03:35:35;;;;;;;43.52;22.58;;;;;;;0.96;82.57;98901.42;1724869;83;25586;-43
2021/01/22 03:38:02;;;;;;;46.18;23.07;;;;;;;0.96;82.54;98899.31;1725176;83;25510;-62
2021/01/22 03:40:29;;;;;;;44.90;22.22;;;;;;;0.98;82.41;98907.27;1725107;83;25518;-62
2021/01/22 03:42:56;;;;;;;38.85;20.80;;;;;;;0.99;82.30;98896.87;1725028;83;25349;-62
2021/01/22 03:45:23;;;;;;;36.13;20.82;;;;;;;1.01;82.29;98897.94;1725135;83;25704;-62
2021/01/22 03:47:50;;;;;;;42.78;20.88;;;;;;;1.01;82.36;98896.06;1724976;83;25546;-41
2021/01/22 03:50:17;;;;;;;38.92;21.52;;;;;;;1.02;82.20;98884.34;1725069;83;25553;-64
2021/01/22 03:52:43;;;;;;;43.52;22.25;;;;;;;1.01;82.06;98883.29;1724926;83;25522;-63
2021/01/22 03:55:11;;;;;;;41.53;21.05;;;;;;;0.99;82.16;98882.75;1725211;83;25505;-54
2021/01/22 03:57:37;;;;;;;38.17;21.42;;;;;;;0.98;82.17;98878.52;1725677;83;26850;-61
2021/01/22 04:00:06;;;;;;;40.05;21.12;;;;;;;0.97;82.11;98877.73;1725455;83;25598;-58
2021/01/22 04:02:33;;;;;;;39.07;21.03;;;;;;;0.98;82.25;98889.95;1725881;82;25581;-46
2021/01/22 04:05:00;;;;;;;40.75;19.75;;;;;;;0.97;82.28;98890.23;1725578;83;25364;-60
2021/01/22 04:07:27;;;;;;;41.98;21.12;;;;;;;1.00;82.40;98888.34;1725624;82;25551;-63
2021/01/22 04:09:54;;;;;;;44.95;22.20;;;;;;;1.01;82.30;98884.62;1725145;83;27072;-62
2021/01/22 04:12:20;;;;;;;43.10;21.07;;;;;;;1.01;82.32;98878.75;1725437;83;25824;-45
2021/01/22 04:14:47;;;;;;;40.55;21.00;;;;;;;0.99;82.19;98870.25;1725441;83;25512;-58
2021/01/22 04:17:14;;;;;;;42.17;20.88;;;;;;;1.00;82.25;98868.38;1725578;83;25620;-63
2021/01/22 04:19:43;;;;;;;39.95;20.30;;;;;;;1.00;82.29;98870.48;1725630;83;25590;-50
2021/01/22 04:22:10;;;;;;;41.23;20.88;;;;;;;1.03;82.38;98861.16;1725545;83;32796;-60
2021/01/22 04:24:37;;;;;;;35.90;19.48;;;;;;;1.03;82.38;98857.95;1725523;83;25585;-56
2021/01/22 04:27:04;;;;;;;35.65;19.62;;;;;;;1.05;82.42;98859.79;1725642;83;25574;-62
2021/01/22 04:29:31;;;;;;;38.73;19.50;;;;;;;1.08;82.49;98847.80;1725488;82;25602;-53
2021/01/22 04:31:58;;;;;;;38.23;20.20;;;;;;;1.10;82.43;98846.97;1725614;83;25555;-62
2021/01/22 04:34:25;;;;;;;36.80;19.42;;;;;;;1.14;82.45;98845.33;1725545;83;26158;-41
2021/01/22 04:36:51;;;;;;;38.95;19.85;;;;;;;1.16;82.47;98837.05;1725524;83;25581;-62
2021/01/22 04:39:19;;;;;;;38.15;19.85;;;;;;;1.19;82.40;98836.50;1725677;83;25436;-62
2021/01/22 04:41:46;;;;;;;37.05;19.73;;;;;;;1.23;82.46;98838.88;1725488;83;25479;-52
2021/01/22 04:44:13;;;;;;;38.85;20.32;;;;;;;1.25;82.43;98837.50;1725549;83;25408;-62
2021/01/22 04:46:42;;;;;;;38.88;21.23;;;;;;;1.28;82.48;98841.48;1725705;83;26217;-46
2021/01/22 04:49:10;;;;;;;35.68;18.65;;;;;;;1.31;82.43;98839.56;1725274;83;25566;-53
2021/01/22 04:51:37;;;;;;;32.65;18.30;;;;;;;1.35;82.49;98841.93;1725573;83;25330;-62
2021/01/22 04:54:16;;;;;;;34.83;19.07;;;;;;;1.40;82.45;98827.77;1725226;83;25668;-63
2021/01/22 04:56:46;;;;;;;32.73;17.77;;;;;;;1.45;82.39;98835.16;1724885;83;25352;-54
2021/01/22 04:59:22;;;;;;;35.30;19.70;;;;;;;1.52;82.38;98834.03;1725079;83;25781;-62
2021/01/22 05:01:49;;;;;;;32.83;17.57;;;;;;;1.57;82.38;98832.09;1724926;83;25376;-63
2021/01/22 05:04:16;;;;;;;32.42;16.75;;;;;;;1.64;82.33;98826.41;1725030;83;25532;-54
2021/01/22 05:06:43;;;;;;;33.78;17.90;;;;;;;1.68;82.28;98824.75;1725123;83;25652;-61
2021/01/22 05:09:10;;;;;;;40.33;18.98;;;;;;;1.73;82.22;98828.69;1725010;83;25626;-62
2021/01/22 05:11:37;;;;;;;33.35;17.48;;;;;;;1.76;82.12;98819.34;1725135;83;27390;-64
2021/01/22 05:14:04;;;;;;;32.28;16.00;;;;;;;1.76;82.05;98814.79;1724904;83;25720;-64
2021/01/22 05:16:33;;;;;;;31.37;16.25;;;;;;;1.78;82.02;98819.29;1725070;83;25723;-62
2021/01/22 05:19:20;;;;;;;31.37;16.37;;;;;;;1.78;81.97;98813.96;1724890;83;25562;-65
2021/01/22 05:21:47;;;;;;;32.78;16.20;;;;;;;1.81;81.89;98814.73;1725159;83;25593;-64
2021/01/22 05:24:22;;;;;;;32.05;15.72;;;;;;;1.83;81.78;98806.44;1725070;83;26338;-63
2021/01/22 05:27:03;;;;;;;31.82;16.35;;;;;;;1.84;81.77;98807.49;1724867;83;25620;-63
2021/01/22 05:29:33;;;;;;;30.50;16.35;;;;;;;1.86;81.65;98810.66;1725011;83;25648;-65
2021/01/22 05:32:00;;;;;;;28.87;15.88;;;;;;;1.89;81.69;98807.16;1724929;83;25527;-63
2021/01/22 05:34:47;;;;;;;30.52;15.43;;;;;;;1.94;81.64;98804.42;1725002;83;25619;-41
2021/01/22 05:37:14;;;;;;;26.85;14.93;;;;;;;1.96;81.65;98798.25;1724541;83;25723;-63
2021/01/22 05:39:41;;;;;;;31.57;17.50;;;;;;;1.98;81.54;98804.90;1724893;82;25436;-47
2021/01/22 05:42:10;;;;;;;31.90;16.20;;;;;;;2.03;81.46;98786.16;1725038;83;25670;-63
2021/01/22 05:44:37;;;;;;;27.77;16.50;;;;;;;2.08;81.62;98780.48;1725221;82;25358;-45
2021/01/22 05:47:09;;;;;;;31.65;17.30;;;;;;;2.11;81.48;98780.72;1725012;83;25678;-63
2021/01/22 05:49:58;;;;;;;32.15;17.45;;;;;;;2.11;81.43;98762.05;1724993;83;25722;-63
2021/01/22 05:52:25;;;;;;;30.17;15.78;;;;;;;2.13;81.39;98757.22;1725033;83;25711;-62
2021/01/22 05:54:53;;;;;;;27.02;14.07;;;;;;;2.16;81.34;98746.48;1724824;82;25586;-44
2021/01/22 05:57:19;;;;;;;29.65;16.40;;;;;;;2.17;81.29;98750.75;1725546;83;25648;-63
2021/01/22 05:59:46;;;;;;;25.10;13.65;;;;;;;2.16;81.20;98752.64;1725584;82;25615;-63
2021/01/22 06:02:27;;;;;;;26.10;14.33;;;;;;;2.18;81.21;98752.32;1725543;83;25696;-59
2021/01/22 06:05:16;;;;;;;24.07;14.03;;;;;;;2.23;81.27;98763.73;1725467;83;25641;-63
2021/01/22 06:07:45;;;;;;;28.75;14.15;;;;;;;2.28;81.21;98776.72;1725780;83;25348;-59
2021/01/22 06:10:16;;;;;;;25.43;13.93;;;;;;;2.31;81.11;98787.61;1725629;83;25550;-55
2021/01/22 06:12:53;;;;;;;23.40;12.95;;;;;;;2.37;81.12;98789.67;1725734;83;25401;-62
2021/01/22 06:15:24;;;;;;;24.90;13.93;;;;;;;2.44;81.24;98790.08;1725602;82;25696;-61
2021/01/22 06:17:53;;;;;;;25.55;12.73;;;;;;;2.49;81.17;98799.34;1725657;83;25697;-59
2021/01/22 06:20:24;;;;;;;24.07;12.37;;;;;;;2.59;81.18;98813.08;1725795;83;25600;-61
2021/01/22 06:23:12;;;;;;;26.23;11.83;;;;;;;2.65;81.01;98811.11;1725602;83;25484;-43
2021/01/22 06:25:42;;;;;;;25.43;13.38;;;;;;;2.70;80.86;98811.80;1725736;83;25368;-60
2021/01/22 06:28:11;;;;;;;27.70;13.75;;;;;;;2.76;80.79;98803.19;1725638;82;25951;-60
2021/01/22 06:30:42;;;;;;;22.80;13.93;;;;;;;2.80;80.57;98804.17;1725529;82;25362;-50
2021/01/22 06:33:11;;;;;;;27.58;13.78;;;;;;;2.83;80.46;98796.91;1725713;82;25515;-62
2021/01/22 06:35:39;;;;;;;25.37;12.90;;;;;;;2.87;80.39;98801.91;1725546;83;25337;-63
2021/01/22 06:38:06;;;;;;;23.40;13.35;;;;;;;2.86;80.35;98794.19;1702881;83;25367;-59
2021/01/22 06:40:33;;;;;;;27.17;14.80;;;;;;;2.87;80.27;98795.78;1725436;83;26856;-63
2021/01/22 06:43:01;;;;;;;26.42;13.03;;;;;;;2.87;80.20;98797.90;1725580;82;25501;-60
2021/01/22 06:45:28;;;;;;;27.07;13.32;;;;;;;2.88;80.12;98789.34;1725777;83;25573;-63
2021/01/22 06:47:59;;;;;;;28.27;13.45;;;;;;;2.89;79.93;98790.93;1725578;82;25621;-50
2021/01/22 06:50:28;;;;;;;25.52;12.95;;;;;;;2.87;79.97;98783.77;1725080;83;25598;-63
2021/01/22 06:53:11;;;;;;;31.23;13.70;;;;;;;2.90;79.87;98791.98;1725649;83;25715;-64
2021/01/22 06:56:02;;;;;;;22.73;13.68;;;;;;;2.91;79.89;98790.91;1724964;83;25727;-45
2021/01/22 06:58:33;;;;;;;24.07;13.20;;;;;;;2.93;79.76;98792.73;1725636;82;25371;-41
2021/01/22 07:01:07;;;;;;;23.90;12.98;;;;;;;2.95;79.35;98786.54;1725629;83;25613;-58
2021/01/22 07:03:47;;;;;;;26.25;13.13;;;;;;;2.99;79.68;98786.19;1722249;83;25586;-61
2021/01/22 07:06:39;;;;;;;22.05;12.82;;;;;;;3.02;79.77;98786.71;1725445;83;25698;-60
2021/01/22 07:09:06;;;;;;;23.57;13.50;;;;;;;3.03;79.77;98791.76;1725698;83;25498;-56
2021/01/22 07:11:51;;;;;;;30.62;15.13;;;;;;;3.03;79.74;98785.08;1725761;83;25545;-50
2021/01/22 07:14:50;;;;;;;25.25;14.43;;;;;;;3.04;79.79;98787.20;1718795;83;25677;-61
2021/01/22 07:17:21;;;;;;;23.00;12.88;;;;;;;3.03;79.76;98792.28;1725765;83;25434;-61
2021/01/22 07:20:00;;;;;;;30.02;15.83;;;;;;;3.04;79.83;98785.31;1725650;83;25702;-59
2021/01/22 07:22:29;;;;;;;27.77;14.78;;;;;;;3.06;79.91;98786.36;1725696;82;25386;-59
2021/01/22 07:24:59;;;;;;;25.95;14.58;;;;;;;3.08;79.81;98786.84;1725238;83;25400;-58
2021/01/22 07:27:44;;;;;;;25.02;14.47;;;;;;;3.12;79.86;98787.86;1725935;82;25730;-58
2021/01/22 07:30:18;;;;;;;27.25;14.43;;;;;;;3.15;79.82;98776.03;1725717;83;25408;-57
2021/01/22 07:32:49;;;;;;;22.93;14.15;;;;;;;3.20;79.72;98779.68;1725590;82;25784;-57
2021/01/22 07:35:21;;;;;;;;;;;;;;;3.24;79.66;98766.77;1727575;83;25658;-47
2021/01/22 07:37:49;;;;;;;26.95;13.13;;;;;;;3.29;79.69;98766.67;1725594;83;25384;-55
2021/01/22 07:40:17;;;;;;;28.20;13.80;;;;;;;3.34;79.64;98765.23;1725729;83;25400;-54
2021/01/22 07:42:45;;;;;;;26.30;14.75;;;;;;;3.39;79.64;98759.52;1725571;82;25545;-45
2021/01/22 07:45:15;;;;;;;24.72;13.95;;;;;;;3.45;79.37;98762.35;1725661;83;25943;-50
2021/01/22 07:47:45;;;;;;;21.05;12.23;;;;;;;3.50;79.41;98759.02;1725647;83;25721;-53
2021/01/22 07:50:19;;;;;;;23.80;13.58;;;;;;;3.55;79.44;98758.13;1725759;82;25389;-59
2021/01/22 07:52:48;;;;;;;26.15;14.03;;;;;;;3.59;79.38;98752.42;1725603;83;25704;-57
2021/01/22 07:55:21;;;;;;;22.98;13.48;;;;;;;3.62;79.31;98746.47;1725563;82;25621;-53
2021/01/22 07:58:05;;;;;;;24.43;13.05;;;;;;;3.67;79.25;98746.92;1725478;82;25996;-60
2021/01/22 08:00:38;;;;;;;26.48;12.53;;;;;;;3.71;79.05;98743.87;1725545;83;25523;-46
2021/01/22 08:03:05;;;;;;;24.77;12.95;;;;;;;3.76;79.04;98737.63;1725318;83;25505;-56
2021/01/22 08:05:34;;;;;;;22.32;12.25;;;;;;;3.82;79.16;98727.08;1725644;82;25660;-45
2021/01/22 08:08:17;;;;;;;20.65;11.80;;;;;;;3.88;78.97;98723.98;1725817;82;25650;-50
2021/01/22 08:10:45;;;;;;;23.10;12.53;;;;;;;3.96;79.03;98714.98;1735267;82;26949;-56
2021/01/22 08:13:12;;;;;;;19.48;11.90;;;;;;;4.06;78.99;98722.22;1734752;82;25625;-56
2021/01/22 08:15:39;;;;;;;19.75;11.30;;;;;;;4.15;78.80;98726.84;1733016;82;25284;-45
2021/01/22 08:18:07;;;;;;;18.92;10.78;;;;;;;4.23;78.59;98724.78;1719022;83;25689;-48
2021/01/22 08:20:34;;;;;;;18.52;11.33;;;;;;;4.33;78.36;98723.75;1735233;82;25565;-57
2021/01/22 08:23:01;;;;;;;19.60;11.00;;;;;;;4.40;78.52;98720.87;1734954;82;26260;-45
2021/01/22 08:25:35;;;;;;;20.82;12.98;;;;;;;4.58;78.38;98728.47;1732977;82;25540;-48
2021/01/22 08:28:05;;;;;;;20.62;11.03;;;;;;;4.88;78.85;98710.00;1719096;83;25616;-47
2021/01/22 08:30:34;;;;;;;22.13;12.73;;;;;;;5.19;77.78;98713.98;1719073;83;25625;-53
2021/01/22 08:33:02;;;;;;;21.70;12.50;;;;;;;5.61;78.80;98710.88;1719163;83;25387;-57
2021/01/22 08:35:31;;;;;;;20.68;12.33;;;;;;;6.13;79.51;98699.37;1719061;83;26949;-50
2021/01/22 08:37:58;;;;;;;21.93;12.05;;;;;;;6.58;76.78;98712.97;1734950;82;25387;-42
2021/01/22 08:40:41;;;;;;;20.88;11.73;;;;;;;6.90;77.09;98712.94;1732853;82;25530;-50
2021/01/22 08:43:15;;;;;;;18.48;11.85;;;;;;;7.24;73.68;98718.70;1717595;83;25638;-57
2021/01/22 08:45:42;;;;;;;18.80;12.13;;;;;;;7.43;73.14;98710.20;1734537;82;25640;-58
2021/01/22 08:48:11;;;;;;;18.17;12.13;;;;;;;7.63;73.52;98707.30;1733022;82;25708;-55
2021/01/22 08:50:39;;;;;;;22.37;12.47;;;;;;;7.94;73.68;98716.09;1718798;83;25755;-41
2021/01/22 08:53:12;;;;;;;18.65;12.28;;;;;;;8.10;72.33;98710.31;1718763;83;25342;-53
2021/01/22 08:55:43;;;;;;;18.80;11.65;;;;;;;8.25;72.38;98713.52;1734514;82;25533;-54
2021/01/22 08:58:12;;;;;;;17.12;11.83;;;;;;;8.43;70.62;98695.30;1715703;83;25706;-46
2021/01/22 09:00:39;;;;;;;21.42;11.95;;;;;;;8.49;69.48;98706.88;1698374;84;25921;-53
2021/01/22 09:03:24;;;;;;;17.70;12.25;;;;;;;8.52;68.72;98697.35;1697066;84;25532;-53
2021/01/22 09:05:53;;;;;;;25.40;13.58;;;;;;;8.43;69.95;98689.91;1697398;83;25336;-51
2021/01/22 09:08:22;;;;;;;18.48;12.15;;;;;;;8.38;69.45;98680.12;1697293;83;25707;-52
2021/01/22 09:10:52;;;;;;;18.23;12.53;;;;;;;8.19;67.88;98703.53;1697280;83;25577;-53
2021/01/22 09:16:05;;;;;;;21.42;12.10;;;;;;;7.65;68.40;98697.55;1817175;78;34990;-50
2021/01/22 09:18:32;;;;;;;18.67;11.88;;;;;;;7.44;68.98;98692.95;1788528;80;25566;-52
2021/01/22 09:21:06;;;;;;;21.70;12.58;;;;;;;7.41;69.70;98692.25;1788136;80;26250;-53
2021/01/22 09:23:37;;;;;;;20.08;11.95;;;;;;;7.44;70.17;98688.11;1787999;80;25595;-50
2021/01/22 09:26:06;;;;;;;17.20;11.70;;;;;;;7.46;68.19;98672.45;1786838;80;25653;-47
2021/01/22 09:28:32;;;;;;;19.75;12.15;;;;;;;7.53;70.14;98667.89;1788270;79;25624;-53
2021/01/22 09:30:59;;;;;;;20.02;12.07;;;;;;;7.69;70.24;98668.86;1788477;80;25576;-52
2021/01/22 09:33:26;;;;;;;18.70;12.37;;;;;;;7.92;69.34;98681.42;1788323;80;26224;-50
2021/01/22 09:35:53;;;;;;;15.70;11.60;;;;;;;8.19;69.73;98661.21;1788032;80;25369;-41
2021/01/22 09:38:21;;;;;;;17.27;12.45;;;;;;;8.43;68.25;98657.58;1788341;80;25655;-52
2021/01/22 09:40:49;;;;;;;18.37;11.85;;;;;;;8.40;68.80;98659.02;1710581;80;205783;-53
2021/01/22 09:43:17;;;;;;;19.23;12.50;;;;;;;8.34;67.45;98657.10;1694249;83;25802;-51
2021/01/22 09:45:45;;;;;;;19.20;12.43;;;;;;;8.35;67.87;98652.49;1695222;84;25772;-49
2021/01/22 09:48:15;;;;;;;19.05;13.18;;;;;;;8.44;68.31;98643.77;1695147;84;25579;-51
2021/01/22 09:50:41;;;;;;;19.70;12.75;;;;;;;8.59;68.20;98646.38;1694999;83;25558;-50
2021/01/22 09:53:08;;;;;;;20.15;13.38;;;;;;;8.52;67.13;98638.84;1695455;84;25602;-49
2021/01/22 09:55:35;;;;;;;19.15;12.20;;;;;;;8.40;66.89;98642.84;1654958;86;25351;-54
2021/01/22 09:58:02;;;;;;;17.10;12.53;;;;;;;8.25;66.46;98646.96;1655261;86;25802;-52
2021/01/22 10:00:29;;;;;;;21.17;13.88;;;;;;;8.00;66.67;98637.48;1655269;86;25618;-56
2021/01/22 10:02:56;;;;;;;18.57;13.00;;;;;;;7.80;66.87;98642.34;1654952;86;25729;-56
2021/01/22 10:05:23;;;;;;;20.60;13.68;;;;;;;7.65;67.18;98639.70;1655012;86;25595;-55
2021/01/22 10:07:50;;;;;;;21.12;12.93;;;;;;;7.52;66.67;98627.30;1655268;86;25399;-52
2021/01/22 10:10:17;;;;;;;22.70;14.07;;;;;;;7.45;67.61;98629.94;1655247;86;26791;-44
2021/01/22 10:12:46;;;;;;;21.97;13.65;;;;;;;7.39;66.98;98626.43;1654981;86;25681;-50
2021/01/22 10:15:14;;;;;;;20.43;12.03;;;;;;;7.46;68.12;98619.42;1663620;85;25750;-58
2021/01/22 10:17:41;;;;;;;23.85;12.98;;;;;;;7.71;68.22;98614.14;1692029;84;25613;-53
2021/01/22 10:20:09;;;;;;;21.57;13.15;;;;;;;7.95;68.31;98602.69;1670474;85;25433;-56
2021/01/22 10:22:36;;;;;;;22.22;13.05;;;;;;;8.23;69.10;98612.84;1691851;84;25789;-50
2021/01/22 10:25:05;;;;;;;21.62;12.75;;;;;;;8.67;67.48;98605.06;1670454;85;25606;-45
2021/01/22 10:27:32;;;;;;;20.43;12.70;;;;;;;9.16;66.38;98598.27;1691504;84;25616;-50
2021/01/22 10:29:59;;;;;;;21.30;12.68;;;;;;;9.67;66.83;98592.38;1691557;84;25606;-56
2021/01/22 10:32:26;;;;;;;17.73;12.68;;;;;;;10.27;66.52;98580.80;1670055;85;25559;-51
2021/01/22 10:34:53;;;;;;;17.92;11.97;;;;;;;10.84;63.62;98578.67;1691373;84;25925;-55
2021/01/22 10:37:21;;;;;;;20.30;12.73;;;;;;;11.06;61.31;98575.87;1670027;85;25430;-57
2021/01/22 10:39:50;;;;;;;20.30;12.40;;;;;;;11.09;62.09;98589.28;1691766;84;25675;-56
2021/01/22 10:42:17;;;;;;;21.68;12.75;;;;;;;10.85;58.89;98595.13;1691548;84;25601;-55
2021/01/22 10:44:44;;;;;;;18.05;12.98;;;;;;;10.54;62.35;98580.52;1670166;85;25613;-51
2021/01/22 10:47:11;;;;;;;21.87;13.40;;;;;;;10.45;63.03;98570.44;1691547;84;25941;-56
2021/01/22 10:49:38;;;;;;;19.23;12.30;;;;;;;10.32;62.26;98578.41;1691255;84;25561;-58
2021/01/22 10:52:05;;;;;;;18.87;12.68;;;;;;;10.14;62.21;98573.33;1691456;84;25572;-52
2021/01/22 10:54:32;;;;;;;22.45;13.22;;;;;;;9.82;61.66;98564.40;1691493;84;25645;-58
2021/01/22 10:56:59;;;;;;;21.17;13.40;;;;;;;9.54;61.92;98565.21;1670118;85;25596;-55
2021/01/22 10:59:26;;;;;;;18.75;13.05;;;;;;;9.44;62.87;98548.16;1691263;84;26243;-54
2021/01/22 11:01:53;;;;;;;16.37;11.38;;;;;;;9.63;62.67;98546.16;1691482;84;25660;-53
2021/01/22 11:04:20;;;;;;;19.50;12.05;;;;;;;10.15;64.82;98538.44;1691336;84;25667;-54
2021/01/22 11:06:47;;;;;;;18.48;12.07;;;;;;;10.48;62.46;98521.66;1691189;84;25531;-52
2021/01/22 11:09:14;;;;;;;22.20;12.45;;;;;;;10.29;62.33;98512.33;1691613;84;25424;-52
2021/01/22 11:11:41;;;;;;;17.32;11.43;;;;;;;10.01;61.99;98531.31;1670194;85;25945;-55
2021/01/22 11:14:08;;;;;;;23.83;13.00;;;;;;;9.68;62.37;98531.06;1691400;84;25758;-56
2021/01/22 11:16:36;;;;;;;22.07;12.35;;;;;;;9.43;62.72;98535.78;1695101;84;25537;-56
2021/01/22 11:19:06;;;;;;;21.45;12.50;;;;;;;9.21;62.88;98531.70;1654588;86;25672;-54
2021/01/22 11:21:34;;;;;;;23.80;13.40;;;;;;;9.05;64.07;98531.08;1654867;86;25564;-53
2021/01/22 11:24:03;;;;;;;21.52;12.43;;;;;;;8.88;63.34;98528.66;1654889;86;25858;-55
2021/01/22 11:26:30;;;;;;;25.60;13.67;;;;;;;8.73;64.52;98518.00;1654502;86;25585;-51
2021/01/22 11:28:57;;;;;;;23.73;13.38;;;;;;;8.58;64.77;98516.24;1654637;86;25839;-57
2021/01/22 11:31:25;;;;;;;20.23;13.18;;;;;;;8.46;65.16;98512.19;1654780;86;25540;-56
2021/01/22 11:33:53;;;;;;;21.15;12.50;;;;;;;8.36;65.28;98523.39;1654455;86;25629;-54
2021/01/22 11:36:20;;;;;;;23.57;12.95;;;;;;;8.26;65.61;98528.69;1654655;86;26011;-53